createdAt,value
2022-08-10T00:03:41.599Z,1.90
2022-08-10T00:08:43.414Z,1.85
2022-08-10T00:13:44.843Z,2.35
2022-08-10T00:18:46.181Z,1.90
2022-08-10T00:23:47.503Z,1.70
2022-08-10T00:28:48.847Z,1.80
2022-08-10T00:33:50.197Z,2.35
2022-08-10T00:38:51.499Z,2.10
2022-08-10T00:43:52.836Z,2.53
2022-08-10T00:49:00.272Z,1.83
2022-08-10T00:54:02.197Z,2.10
2022-08-10T00:59:03.733Z,2.13
2022-08-10T01:04:54.451Z,2.08
2022-08-10T01:09:28.752Z,2.10
2022-08-10T01:14:54.880Z,2.45
2022-08-10T01:20:06.412Z,1.92
2022-08-10T01:25:28.842Z,2.30
2022-08-10T01:30:32.822Z,2.05
2022-08-10T01:35:50.173Z,2.08
2022-08-10T01:41:02.314Z,1.95
2022-08-10T01:46:05.951Z,1.85
2022-08-10T01:51:22.025Z,2.20
2022-08-10T01:56:25.160Z,2.45
2022-08-10T02:01:32.383Z,2.15
2022-08-10T02:06:39.826Z,2.22
2022-08-10T02:12:05.339Z,1.92
2022-08-10T02:17:58.153Z,2.10
2022-08-10T02:22:40.317Z,2.20
2022-08-10T02:27:43.490Z,2.33
2022-08-10T02:32:52.764Z,2.10
2022-08-10T02:37:59.694Z,2.10
2022-08-10T02:45:22.325Z,2.65
2022-08-10T02:48:47.126Z,2.40
2022-08-10T02:53:56.994Z,2.50
2022-08-10T02:59:06.931Z,2.25
2022-08-10T03:04:56.022Z,2.38
2022-08-10T03:09:47.349Z,2.22
2022-08-10T03:14:50.510Z,2.35
2022-08-10T03:20:34.422Z,2.33
2022-08-10T03:25:15.542Z,2.33
2022-08-10T03:30:23.412Z,2.17
2022-08-10T03:35:35.102Z,2.33
2022-08-10T03:40:46.109Z,2.65
2022-08-10T03:45:57.686Z,2.40
2022-08-10T03:51:01.160Z,2.30
2022-08-10T04:02:46.580Z,2.28
2022-08-10T04:06:46.443Z,2.35
2022-08-10T04:11:52.673Z,2.47
2022-08-10T04:16:54.356Z,2.35
2022-08-10T04:22:07.471Z,2.47
2022-08-10T04:27:09.450Z,2.55
2022-08-10T04:32:12.775Z,2.78
2022-08-10T04:37:15.926Z,2.72
2022-08-10T04:42:18.261Z,2.10
2022-08-10T04:47:57.896Z,2.13
2022-08-10T04:52:41.059Z,2.33
2022-08-10T04:57:42.631Z,2.47
2022-08-10T05:02:44.025Z,2.40
2022-08-10T05:07:53.977Z,2.22
2022-08-10T05:12:58.571Z,2.47
2022-08-10T05:18:06.051Z,2.58
2022-08-10T05:23:12.664Z,2.50
2022-08-10T05:28:14.089Z,2.22
2022-08-10T05:33:15.406Z,2.33
2022-08-10T05:38:18.352Z,2.63
2022-08-10T05:43:21.580Z,2.30
2022-08-10T05:48:55.530Z,2.42
2022-08-10T05:54:01.258Z,2.50
2022-08-10T05:59:04.813Z,2.55
2022-08-10T06:04:08.102Z,2.05
2022-08-10T06:09:11.607Z,2.58
2022-08-10T06:14:34.737Z,2.75
2022-08-10T06:19:39.564Z,2.60
2022-08-10T06:25:12.272Z,2.63
2022-08-10T06:30:20.909Z,2.80
2022-08-10T06:35:27.214Z,2.30
2022-08-10T06:40:34.985Z,2.25
2022-08-10T06:46:07.410Z,2.30
2022-08-10T06:51:17.942Z,2.53
2022-08-10T06:56:35.909Z,2.40
2022-08-10T07:01:43.527Z,2.03
2022-08-10T07:06:55.111Z,2.10
2022-08-10T07:12:08.650Z,2.10
2022-08-10T07:17:17.285Z,2.08
2022-08-10T07:23:01.711Z,2.03
2022-08-10T07:27:58.630Z,2.40
2022-08-10T07:33:02.825Z,2.08
2022-08-10T07:38:07.623Z,1.98
2022-08-10T07:43:10.903Z,2.20
2022-08-10T07:48:17.288Z,2.55
2022-08-10T07:53:23.394Z,2.00
2022-08-10T07:58:34.346Z,1.92
2022-08-10T08:03:36.562Z,1.60
2022-08-10T08:08:40.579Z,3.20
2022-08-10T08:13:43.397Z,1.77
2022-08-10T08:24:31.054Z,1.70
2022-08-10T08:29:35.229Z,1.52
2022-08-10T08:34:42.406Z,1.60
2022-08-10T08:39:46.202Z,1.73
2022-08-10T08:45:10.458Z,2.20
2022-08-10T08:50:31.107Z,1.80
2022-08-10T08:56:03.574Z,1.92
2022-08-10T09:06:28.852Z,2.22
2022-08-10T09:11:59.145Z,1.67
2022-08-10T09:17:08.276Z,2.03
2022-08-10T09:22:25.958Z,1.75
2022-08-10T09:27:52.404Z,1.10
2022-08-10T09:36:26.375Z,1.33
2022-08-10T09:38:51.246Z,1.25
2022-08-10T09:44:15.072Z,1.70
2022-08-10T09:49:53.291Z,1.48
2022-08-10T09:55:14.660Z,2.08
2022-08-10T10:00:20.355Z,1.10
2022-08-10T10:05:33.145Z,1.20
2022-08-10T10:11:02.682Z,1.10
2022-08-10T10:16:41.202Z,0.90
2022-08-10T10:21:54.146Z,0.80
2022-08-10T10:27:03.645Z,0.82
2022-08-10T10:32:15.673Z,0.82
2022-08-10T10:37:20.641Z,0.77
2022-08-10T10:42:50.343Z,0.60
2022-08-10T10:48:24.347Z,0.70
2022-08-10T10:53:49.298Z,0.80
2022-08-10T10:59:55.364Z,0.47
2022-08-10T11:04:52.902Z,0.70
2022-08-10T11:10:12.287Z,0.93
2022-08-10T11:15:48.292Z,0.98
2022-08-10T11:21:10.585Z,0.60
2022-08-10T11:26:28.969Z,0.68
2022-08-10T11:32:02.240Z,0.70
2022-08-10T11:37:21.984Z,0.80
2022-08-10T11:42:36.389Z,0.70
2022-08-10T11:47:50.543Z,0.70
2022-08-10T11:53:05.405Z,0.70
2022-08-10T11:58:31.620Z,0.80
2022-08-10T12:03:35.985Z,1.10
2022-08-10T12:10:03.934Z,0.73
2022-08-10T12:14:28.864Z,1.42
2022-08-10T12:20:02.239Z,0.80
2022-08-10T12:25:11.559Z,0.65
2022-08-10T12:30:38.415Z,0.63
2022-08-10T12:36:18.625Z,0.90
2022-08-10T12:41:44.809Z,0.40
2022-08-10T12:46:46.776Z,0.63
2022-08-10T12:52:00.342Z,0.98
2022-08-10T12:57:08.911Z,0.65
2022-08-10T13:02:18.688Z,0.88
2022-08-10T13:08:03.958Z,0.60
2022-08-10T13:12:56.744Z,0.80
2022-08-10T13:18:01.145Z,0.90
2022-08-10T13:23:11.170Z,1.02
2022-08-10T13:28:37.085Z,0.93
2022-08-10T13:34:40.734Z,0.90
2022-08-10T13:39:10.554Z,0.85
2022-08-10T13:44:15.519Z,0.80
2022-08-10T13:49:19.056Z,0.80
2022-08-10T13:54:24.735Z,1.10
2022-08-10T14:00:33.885Z,1.85
2022-08-10T14:04:54.185Z,0.82
2022-08-10T14:10:01.244Z,0.75
2022-08-10T14:15:07.394Z,1.00
2022-08-10T14:20:14.014Z,0.80
2022-08-10T14:25:17.399Z,1.17
2022-08-10T14:30:18.930Z,0.90
2022-08-10T14:36:18.772Z,0.82
2022-08-10T14:40:50.188Z,0.75
2022-08-10T14:46:05.620Z,0.98
2022-08-10T14:51:09.082Z,1.25
2022-08-10T14:56:16.333Z,0.77
2022-08-10T15:01:20.370Z,1.33
2022-08-10T15:06:30.576Z,0.80
2022-08-10T15:12:14.355Z,0.80
2022-08-10T15:16:59.533Z,1.23
2022-08-10T15:22:13.322Z,0.70
2022-08-10T15:27:27.496Z,1.00
2022-08-10T15:33:12.766Z,1.08
2022-08-10T15:38:21.397Z,0.82
2022-08-10T15:43:36.926Z,1.02
2022-08-10T15:49:25.728Z,1.00
2022-08-10T15:54:38.057Z,1.45
2022-08-10T15:59:43.193Z,1.23
2022-08-10T16:04:57.399Z,1.25
2022-08-10T16:10:24.453Z,1.20
2022-08-10T16:15:30.606Z,1.05
2022-08-10T16:20:53.527Z,1.13
2022-08-10T16:26:15.265Z,1.17
2022-08-10T16:31:24.813Z,1.00
2022-08-10T16:36:40.787Z,1.10
2022-08-10T16:42:02.914Z,1.38
2022-08-10T16:47:08.534Z,1.17
2022-08-10T16:52:11.332Z,1.08
2022-08-10T16:57:14.629Z,1.35
2022-08-10T17:02:18.379Z,1.00
2022-08-10T17:07:30.646Z,1.08
2022-08-10T17:12:34.612Z,1.33
2022-08-10T17:17:46.680Z,1.17
2022-08-10T17:22:54.627Z,1.02
2022-08-10T17:28:05.634Z,1.40
2022-08-10T17:33:13.579Z,1.30
2022-08-10T17:38:23.781Z,1.20
2022-08-10T17:43:46.331Z,1.60
2022-08-10T17:53:52.475Z,1.60
2022-08-10T17:58:59.081Z,1.63
2022-08-10T18:04:05.218Z,1.63
2022-08-10T18:09:12.451Z,1.50
2022-08-10T18:14:16.624Z,1.70
2022-08-10T18:19:18.118Z,1.92
2022-08-10T18:24:21.166Z,1.95
2022-08-10T18:29:27.549Z,1.95
2022-08-10T18:34:32.622Z,1.77
2022-08-10T18:39:37.662Z,1.73
2022-08-10T18:44:44.707Z,1.80
2022-08-10T18:49:59.701Z,2.00
2022-08-10T18:55:24.513Z,2.55
2022-08-10T19:01:04.772Z,2.40
2022-08-10T19:06:19.136Z,2.20
2022-08-10T19:11:47.863Z,2.15
2022-08-10T19:18:03.619Z,2.30
2022-08-10T19:23:09.125Z,1.95
2022-08-10T19:28:16.708Z,1.90
2022-08-10T19:33:44.113Z,2.08
2022-08-10T19:39:13.346Z,1.88
2022-08-10T19:44:35.506Z,2.13
2022-08-10T19:50:04.348Z,1.67
2022-08-10T19:55:33.588Z,1.90
2022-08-10T20:00:41.002Z,1.98
2022-08-10T20:06:18.539Z,2.15
2022-08-10T20:11:45.173Z,1.95
2022-08-10T20:16:48.747Z,1.40
2022-08-10T20:21:59.336Z,1.90
2022-08-10T20:27:43.549Z,2.00
2022-08-10T20:32:55.307Z,1.98
2022-08-10T20:38:09.272Z,1.60
2022-08-10T20:43:24.206Z,2.53
2022-08-10T20:48:37.946Z,2.25
2022-08-10T20:53:46.751Z,1.90
2022-08-10T20:59:28.961Z,2.63
2022-08-10T21:04:51.320Z,2.13
2022-08-10T21:09:52.566Z,2.42
2022-08-10T21:15:07.075Z,1.95
2022-08-10T21:20:19.172Z,2.17
2022-08-10T21:25:42.747Z,2.00
2022-08-10T21:30:51.146Z,2.28
2022-08-10T21:36:02.263Z,2.10
2022-08-10T21:41:58.011Z,2.13
2022-08-10T21:47:39.570Z,2.03
2022-08-10T21:53:22.366Z,2.50
2022-08-10T21:59:21.488Z,1.95
2022-08-10T22:04:45.581Z,2.22
2022-08-10T22:10:08.752Z,2.53
2022-08-10T22:21:45.714Z,2.00
2022-08-10T22:27:46.691Z,1.77
2022-08-10T22:33:22.701Z,2.50
2022-08-10T22:40:11.061Z,1.92
2022-08-10T22:45:05.765Z,2.28
2022-08-10T22:50:10.475Z,2.35
2022-08-10T22:55:42.812Z,2.25
2022-08-10T23:01:11.924Z,2.30
2022-08-10T23:06:19.645Z,2.47
2022-08-10T23:11:32.597Z,2.42
2022-08-10T23:17:14.003Z,2.30
2022-08-10T23:22:19.393Z,2.40
2022-08-10T23:27:38.264Z,2.90
2022-08-10T23:32:47.756Z,2.33
2022-08-10T23:37:54.995Z,2.25
2022-08-10T23:42:58.118Z,2.22
2022-08-10T23:53:13.638Z,2.47
2022-08-10T23:58:33.654Z,2.70
